Time,TemperatureF,DewpointF,PressureIn,WindDirection,WindDirectionDegrees,WindSpeedMPH,WindSpeedGustMPH,Humidity,HourlyPrecipIn,Conditions,Clouds,dailyrainin,SolarRadiationWatts/m^2,SoftwareType,DateUTC
2013-05-19 00:02:00,76.0,65.0,-100.00,North,7,8.0,13.0,70,0.00,,,0.00,1.000000,,2013-05-19 10:02:00,
2013-05-19 00:12:00,76.0,65.0,-100.00,North,7,8.0,13.0,70,0.00,,,0.00,1.000000,,2013-05-19 10:12:00,
2013-05-19 00:22:00,76.0,65.0,-100.00,North,7,8.0,13.0,70,0.00,,,0.00,1.000000,,2013-05-19 10:22:00,
2013-05-19 00:32:00,76.0,65.0,-100.00,North,7,8.0,13.0,70,0.00,,,0.00,1.000000,,2013-05-19 10:32:00,
2013-05-19 01:02:00,77.0,65.0,-100.00,North,6,9.0,14.0,66,0.00,,,0.00,1.000000,,2013-05-19 11:02:00,
2013-05-19 01:11:00,77.0,65.0,-100.00,North,6,9.0,14.0,66,0.00,,,0.00,1.000000,,2013-05-19 11:11:00,
2013-05-19 01:21:00,77.0,65.0,-100.00,North,6,9.0,14.0,66,0.00,,,0.00,1.000000,,2013-05-19 11:21:00,
2013-05-19 01:32:00,77.0,65.0,-100.00,North,6,9.0,14.0,66,0.00,,,0.00,1.000000,,2013-05-19 11:32:00,
2013-05-19 02:01:00,76.0,64.0,-100.00,North,6,6.0,14.0,67,0.00,,,0.00,1.000000,,2013-05-19 12:01:00,
2013-05-19 02:11:00,76.0,64.0,-100.00,North,6,6.0,14.0,67,0.00,,,0.00,1.000000,,2013-05-19 12:11:00,
2013-05-19 02:21:00,76.0,64.0,-100.00,North,6,6.0,14.0,67,0.00,,,0.00,1.000000,,2013-05-19 12:21:00,
2013-05-19 02:31:00,76.0,64.0,-100.00,North,6,6.0,14.0,67,0.00,,,0.00,1.000000,,2013-05-19 12:31:00,
2013-05-19 03:01:00,76.0,63.0,-100.00,North,353,5.0,10.0,65,0.00,,,0.00,0.000000,,2013-05-19 13:01:00,
2013-05-19 03:11:00,76.0,63.0,-100.00,North,353,5.0,10.0,65,0.00,,,0.00,0.000000,,2013-05-19 13:11:00,
2013-05-19 03:21:00,76.0,63.0,-100.00,North,353,5.0,10.0,65,0.00,,,0.00,0.000000,,2013-05-19 13:21:00,
2013-05-19 03:31:00,76.0,63.0,-100.00,North,353,5.0,10.0,65,0.00,,,0.00,0.000000,,2013-05-19 13:31:00,
2013-05-19 04:02:00,77.0,62.0,-100.00,NNW,344,8.0,12.0,60,0.00,,,0.00,1.000000,,2013-05-19 14:02:00,
2013-05-19 04:11:00,77.0,62.0,-100.00,NNW,344,8.0,12.0,60,0.00,,,0.00,1.000000,,2013-05-19 14:11:00,
2013-05-19 04:21:00,77.0,62.0,-100.00,NNW,344,8.0,12.0,60,0.00,,,0.00,1.000000,,2013-05-19 14:21:00,
2013-05-19 04:31:00,77.0,62.0,-100.00,NNW,344,8.0,12.0,60,0.00,,,0.00,1.000000,,2013-05-19 14:31:00,
2013-05-19 05:01:00,77.0,57.0,-100.00,North,359,6.0,11.0,50,0.00,,,0.00,1.000000,,2013-05-19 15:01:00,
2013-05-19 05:11:00,77.0,57.0,-100.00,North,359,6.0,11.0,50,0.00,,,0.00,1.000000,,2013-05-19 15:11:00,
2013-05-19 05:21:00,77.0,57.0,-100.00,North,359,6.0,11.0,50,0.00,,,0.00,1.000000,,2013-05-19 15:21:00,
2013-05-19 05:32:00,77.0,57.0,-100.00,North,359,6.0,11.0,50,0.00,,,0.00,1.000000,,2013-05-19 15:32:00,
2013-05-19 06:03:00,77.0,57.0,-100.00,North,0,5.0,10.0,50,0.00,,,0.00,1.000000,,2013-05-19 16:03:00,
2013-05-19 06:12:00,77.0,57.0,-100.00,North,0,5.0,10.0,50,0.00,,,0.00,1.000000,,2013-05-19 16:12:00,
2013-05-19 06:23:00,77.0,57.0,-100.00,North,0,5.0,10.0,50,0.00,,,0.00,1.000000,,2013-05-19 16:23:00,
2013-05-19 06:32:00,77.0,57.0,-100.00,North,0,5.0,10.0,50,0.00,,,0.00,1.000000,,2013-05-19 16:32:00,
2013-05-19 07:02:00,77.0,61.0,-100.00,NNW,348,4.0,8.0,57,0.00,,,0.00,30.000000,,2013-05-19 17:02:00,
2013-05-19 07:12:00,77.0,61.0,-100.00,NNW,348,4.0,8.0,57,0.00,,,0.00,30.000000,,2013-05-19 17:12:00,
2013-05-19 07:22:00,77.0,61.0,-100.00,NNW,348,4.0,8.0,57,0.00,,,0.00,30.000000,,2013-05-19 17:22:00,
2013-05-19 07:32:00,77.0,61.0,-100.00,NNW,348,4.0,8.0,57,0.00,,,0.00,30.000000,,2013-05-19 17:32:00,
2013-05-19 08:02:00,81.0,63.0,-100.00,WNW,301,2.0,6.0,55,0.00,,,0.00,130.000000,,2013-05-19 18:02:00,
2013-05-19 08:12:00,81.0,63.0,-100.00,WNW,301,2.0,6.0,55,0.00,,,0.00,130.000000,,2013-05-19 18:12:00,
2013-05-19 08:21:00,81.0,63.0,-100.00,WNW,301,2.0,6.0,55,0.00,,,0.00,130.000000,,2013-05-19 18:21:00,
2013-05-19 08:32:00,81.0,63.0,-100.00,WNW,301,2.0,6.0,55,0.00,,,0.00,130.000000,,2013-05-19 18:32:00,
2013-05-19 09:01:00,84.0,62.0,-100.00,WNW,284,2.0,6.0,48,0.00,,,0.00,211.000000,,2013-05-19 19:01:00,
2013-05-19 09:11:00,84.0,62.0,-100.00,WNW,284,2.0,6.0,48,0.00,,,0.00,211.000000,,2013-05-19 19:11:00,
2013-05-19 09:21:00,84.0,62.0,-100.00,WNW,284,2.0,6.0,48,0.00,,,0.00,211.000000,,2013-05-19 19:21:00,
2013-05-19 09:31:00,84.0,62.0,-100.00,WNW,284,2.0,6.0,48,0.00,,,0.00,211.000000,,2013-05-19 19:31:00,
2013-05-19 10:02:00,83.0,63.0,-100.00,West,275,3.0,6.0,51,0.00,,,0.00,242.000000,,2013-05-19 20:02:00,
2013-05-19 10:11:00,83.0,63.0,-100.00,West,275,3.0,6.0,51,0.00,,,0.00,242.000000,,2013-05-19 20:11:00,
2013-05-19 10:21:00,83.0,63.0,-100.00,West,275,3.0,6.0,51,0.00,,,0.00,242.000000,,2013-05-19 20:21:00,
2013-05-19 10:31:00,83.0,63.0,-100.00,West,275,3.0,6.0,51,0.00,,,0.00,242.000000,,2013-05-19 20:31:00,
2013-05-19 11:02:00,87.0,67.0,-100.00,NW,316,4.0,9.0,51,0.00,,,0.00,370.000000,,2013-05-19 21:02:00,
2013-05-19 11:11:00,87.0,67.0,-100.00,NW,316,4.0,9.0,51,0.00,,,0.00,370.000000,,2013-05-19 21:11:00,
2013-05-19 11:22:00,87.0,67.0,-100.00,NW,316,4.0,9.0,51,0.00,,,0.00,370.000000,,2013-05-19 21:22:00,
2013-05-19 11:32:00,87.0,67.0,-100.00,NW,316,4.0,9.0,51,0.00,,,0.00,370.000000,,2013-05-19 21:32:00,
2013-05-19 12:02:00,94.0,71.0,-100.00,WSW,242,5.0,10.0,47,0.00,,,0.00,665.000000,,2013-05-19 22:02:00,
2013-05-19 12:12:00,94.0,71.0,-100.00,WSW,242,5.0,10.0,47,0.00,,,0.00,665.000000,,2013-05-19 22:12:00,
2013-05-19 12:23:00,94.0,71.0,-100.00,WSW,242,5.0,10.0,47,0.00,,,0.00,665.000000,,2013-05-19 22:23:00,
2013-05-19 12:33:00,94.0,71.0,-100.00,WSW,242,5.0,10.0,47,0.00,,,0.00,665.000000,,2013-05-19 22:33:00,
2013-05-19 13:02:00,96.0,68.0,-100.00,SSW,201,5.0,13.0,41,0.00,,,0.00,1017.000000,,2013-05-19 23:02:00,
2013-05-19 13:11:00,96.0,68.0,-100.00,SSW,201,5.0,13.0,41,0.00,,,0.00,1017.000000,,2013-05-19 23:11:00,
2013-05-19 13:21:00,96.0,68.0,-100.00,SSW,201,5.0,13.0,41,0.00,,,0.00,1017.000000,,2013-05-19 23:21:00,
2013-05-19 13:32:00,96.0,68.0,-100.00,SSW,201,5.0,13.0,41,0.00,,,0.00,1017.000000,,2013-05-19 23:32:00,
2013-05-19 14:02:00,88.0,63.0,-100.00,ENE,77,3.0,9.0,43,0.00,,,0.00,622.000000,,2013-05-20 00:02:00,
2013-05-19 14:11:00,88.0,63.0,-100.00,ENE,77,3.0,9.0,43,0.00,,,0.00,622.000000,,2013-05-20 00:11:00,
2013-05-19 14:21:00,88.0,63.0,-100.00,ENE,77,3.0,9.0,43,0.00,,,0.00,622.000000,,2013-05-20 00:21:00,
2013-05-19 14:31:00,88.0,63.0,-100.00,ENE,77,3.0,9.0,43,0.00,,,0.00,622.000000,,2013-05-20 00:31:00,
2013-05-19 15:01:00,87.0,65.0,-100.00,East,86,4.0,9.0,48,0.00,,,0.00,431.000000,,2013-05-20 01:01:00,
2013-05-19 15:11:00,87.0,65.0,-100.00,East,86,4.0,9.0,48,0.00,,,0.00,431.000000,,2013-05-20 01:11:00,
2013-05-19 15:21:00,87.0,65.0,-100.00,East,86,4.0,9.0,48,0.00,,,0.00,431.000000,,2013-05-20 01:21:00,
2013-05-19 15:31:00,87.0,65.0,-100.00,East,86,4.0,9.0,48,0.00,,,0.00,431.000000,,2013-05-20 01:31:00,
2013-05-19 16:02:00,92.0,65.0,-100.00,ESE,121,5.0,11.0,41,0.00,,,0.00,734.000000,,2013-05-20 02:02:00,
2013-05-19 16:11:00,92.0,65.0,-100.00,ESE,121,5.0,11.0,41,0.00,,,0.00,734.000000,,2013-05-20 02:11:00,
2013-05-19 16:21:00,92.0,65.0,-100.00,ESE,121,5.0,11.0,41,0.00,,,0.00,734.000000,,2013-05-20 02:21:00,
2013-05-19 16:31:00,92.0,65.0,-100.00,ESE,121,5.0,11.0,41,0.00,,,0.00,734.000000,,2013-05-20 02:31:00,
2013-05-19 17:01:00,87.0,60.0,-100.00,North,11,2.0,10.0,41,0.00,,,0.00,743.000000,,2013-05-20 03:01:00,
2013-05-19 17:11:00,87.0,60.0,-100.00,North,11,2.0,10.0,41,0.00,,,0.00,743.000000,,2013-05-20 03:11:00,
2013-05-19 17:21:00,87.0,60.0,-100.00,North,11,2.0,10.0,41,0.00,,,0.00,743.000000,,2013-05-20 03:21:00,
2013-05-19 17:33:00,87.0,60.0,-100.00,North,11,2.0,10.0,41,0.00,,,0.00,743.000000,,2013-05-20 03:33:00,
2013-05-19 18:02:00,85.0,62.0,-100.00,NNE,28,2.0,10.0,46,0.00,,,0.00,362.000000,,2013-05-20 04:02:00,
2013-05-19 18:12:00,85.0,62.0,-100.00,NNE,28,2.0,10.0,46,0.00,,,0.00,362.000000,,2013-05-20 04:12:00,
2013-05-19 18:23:00,85.0,62.0,-100.00,NNE,28,2.0,10.0,46,0.00,,,0.00,362.000000,,2013-05-20 04:23:00,
2013-05-19 18:33:00,85.0,62.0,-100.00,NNE,28,2.0,10.0,46,0.00,,,0.00,362.000000,,2013-05-20 04:33:00,
2013-05-19 19:02:00,78.0,61.0,-100.00,SSW,206,3.0,8.0,55,0.00,,,0.00,85.000000,,2013-05-20 05:02:00,
2013-05-19 19:12:00,78.0,61.0,-100.00,SSW,206,3.0,8.0,55,0.00,,,0.00,85.000000,,2013-05-20 05:12:00,
2013-05-19 19:21:00,78.0,61.0,-100.00,SSW,206,3.0,8.0,55,0.00,,,0.00,85.000000,,2013-05-20 05:21:00,
2013-05-19 19:32:00,78.0,61.0,-100.00,SSW,206,3.0,8.0,55,0.00,,,0.00,85.000000,,2013-05-20 05:32:00,
2013-05-19 20:01:00,76.0,64.0,-100.00,ENE,73,3.0,7.0,66,0.00,,,0.00,13.000000,,2013-05-20 06:01:00,
2013-05-19 20:11:00,76.0,64.0,-100.00,ENE,73,3.0,7.0,66,0.00,,,0.00,13.000000,,2013-05-20 06:11:00,
2013-05-19 20:21:00,76.0,64.0,-100.00,ENE,73,3.0,7.0,66,0.00,,,0.00,13.000000,,2013-05-20 06:21:00,
2013-05-19 20:31:00,76.0,64.0,-100.00,ENE,73,3.0,7.0,66,0.00,,,0.00,13.000000,,2013-05-20 06:31:00,
2013-05-19 21:01:00,78.0,65.0,-100.00,North,4,1.0,5.0,65,0.00,,,-99.99,0.000000,,2013-05-20 07:01:00,
2013-05-19 21:11:00,78.0,65.0,-100.00,North,4,1.0,5.0,65,0.00,,,-99.99,0.000000,,2013-05-20 07:11:00,
2013-05-19 21:21:00,78.0,65.0,-100.00,North,4,1.0,5.0,65,0.00,,,-99.99,0.000000,,2013-05-20 07:21:00,
2013-05-19 21:32:00,78.0,65.0,-100.00,North,4,1.0,5.0,65,0.00,,,-99.99,0.000000,,2013-05-20 07:32:00,
2013-05-19 22:01:00,74.0,62.0,-100.00,North,4,3.0,7.0,66,0.00,,,0.00,0.000000,,2013-05-20 08:01:00,
2013-05-19 22:11:00,74.0,62.0,-100.00,North,4,3.0,7.0,66,0.00,,,0.00,0.000000,,2013-05-20 08:11:00,
2013-05-19 22:21:00,74.0,62.0,-100.00,North,4,3.0,7.0,66,0.00,,,0.00,0.000000,,2013-05-20 08:21:00,
2013-05-19 22:31:00,74.0,62.0,-100.00,North,4,3.0,7.0,66,0.00,,,0.00,0.000000,,2013-05-20 08:31:00,
2013-05-19 23:01:00,75.0,60.0,-100.00,North,355,2.0,10.0,60,0.00,,,0.00,1.000000,,2013-05-20 09:01:00,
2013-05-19 23:12:00,75.0,60.0,-100.00,North,355,2.0,10.0,60,0.00,,,0.00,1.000000,,2013-05-20 09:12:00,
2013-05-19 23:21:00,75.0,60.0,-100.00,North,355,2.0,10.0,60,0.00,,,0.00,1.000000,,2013-05-20 09:21:00,
2013-05-19 23:32:00,75.0,60.0,-100.00,North,355,2.0,10.0,60,0.00,,,0.00,1.000000,,2013-05-20 09:32:00,